Time;durP1;ratioP1;P1;durP2;ratioP2;P2;SDS_P1;SDS_P2;PMS_P1;PMS_P2;Temp;Humidity;BMP_temperature;BMP_pressure;BME280_temperature;BME280_humidity;BME280_pressure;Samples;Min_cycle;Max_cycle;Signal;HPM_P1;HPM_P2
2022/03/08 00:01:52;;;;;;;33.42;15.35;;;-0.30;47.10;;;;;;5027790;28;20491;-62
2022/03/08 00:04:18;;;;;;;22.13;13.55;;;-0.20;47.20;;;;;;5030868;28;20060;-62
2022/03/08 00:06:44;;;;;;;23.88;13.35;;;-0.50;47.10;;;;;;5043788;28;20021;-63
2022/03/08 00:09:09;;;;;;;23.80;14.32;;;-0.50;47.00;;;;;;5046503;28;20074;-63
2022/03/08 00:11:35;;;;;;;24.88;14.20;;;-0.50;47.10;;;;;;5026143;28;20037;-63
2022/03/08 00:14:01;;;;;;;23.63;13.60;;;-0.60;47.00;;;;;;5028578;28;20083;-62
2022/03/08 00:16:26;;;;;;;21.88;13.70;;;-0.60;46.90;;;;;;5046249;28;20021;-63
2022/03/08 00:18:52;;;;;;;28.13;13.82;;;-0.60;47.00;;;;;;5047148;28;20506;-63
2022/03/08 00:21:18;;;;;;;24.70;14.00;;;-0.60;47.20;;;;;;5046096;28;20030;-63
2022/03/08 00:23:45;;;;;;;22.98;12.63;;;-0.70;47.30;;;;;;5047318;28;20030;-63
2022/03/08 00:26:11;;;;;;;26.77;13.93;;;-0.70;47.40;;;;;;5045549;28;20025;-63
2022/03/08 00:28:36;;;;;;;24.38;12.98;;;-0.70;47.50;;;;;;5047500;28;20061;-63
2022/03/08 00:31:02;;;;;;;23.88;12.90;;;-0.80;47.60;;;;;;5045472;28;20029;-63
2022/03/08 00:33:28;;;;;;;25.33;13.63;;;-0.80;47.60;;;;;;5023606;28;20041;-63
2022/03/08 00:35:54;;;;;;;30.60;13.65;;;-0.80;48.50;;;;;;5045175;28;20045;-63
2022/03/08 00:38:21;;;;;;;27.23;13.23;;;-0.70;48.10;;;;;;5046245;28;20034;-64
2022/03/08 00:40:47;;;;;;;23.30;13.05;;;-0.90;48.10;;;;;;5045167;28;20026;-63
2022/03/08 00:43:12;;;;;;;23.02;12.82;;;-0.90;47.90;;;;;;5045160;28;20032;-63
2022/03/08 00:45:39;;;;;;;21.17;12.77;;;-0.90;48.00;;;;;;5046790;28;20376;-64
2022/03/08 00:48:05;;;;;;;25.42;13.43;;;-1.00;48.20;;;;;;5045907;28;20151;-62
2022/03/08 00:50:32;;;;;;;26.33;13.32;;;-1.00;48.20;;;;;;5046334;28;20043;-64
2022/03/08 00:52:59;;;;;;;24.65;13.20;;;-1.00;48.30;;;;;;5045407;28;20029;-63
2022/03/08 00:55:27;;;;;;;26.80;14.32;;;-1.10;48.30;;;;;;5046161;28;20067;-63
2022/03/08 00:57:53;;;;;;;24.33;13.30;;;-1.10;48.50;;;;;;5045785;28;20145;-62
2022/03/08 01:00:23;;;;;;;24.55;13.40;;;-1.10;48.40;;;;;;5046218;28;20025;-64
2022/03/08 01:02:48;;;;;;;23.23;13.57;;;-1.10;49.10;;;;;;5045373;28;20030;-64
2022/03/08 01:05:14;;;;;;;26.98;14.70;;;-1.10;48.50;;;;;;5046235;28;20040;-63
2022/03/08 01:07:40;;;;;;;22.88;13.15;;;-1.20;48.60;;;;;;5045545;28;20030;-62
2022/03/08 01:10:09;;;;;;;27.67;14.48;;;-1.20;48.70;;;;;;5045825;28;20025;-62
2022/03/08 01:12:35;;;;;;;25.77;13.95;;;-1.20;48.80;;;;;;5042417;28;20057;-62
2022/03/08 01:15:05;;;;;;;24.05;13.57;;;-1.20;48.80;;;;;;5046204;28;20033;-62
2022/03/08 01:17:30;;;;;;;24.80;14.57;;;-1.20;48.90;;;;;;5043873;28;20486;-62
2022/03/08 01:19:57;;;;;;;24.77;12.75;;;-1.30;48.80;;;;;;5045966;28;20084;-63
2022/03/08 01:22:23;;;;;;;28.30;13.73;;;-1.30;48.80;;;;;;5044579;28;20029;-62
2022/03/08 01:24:49;;;;;;;25.20;13.02;;;-1.30;49.40;;;;;;5045642;28;20531;-62
2022/03/08 01:27:15;;;;;;;23.63;13.70;;;-1.30;48.80;;;;;;5044345;28;20025;-63
2022/03/08 01:29:40;;;;;;;24.23;13.15;;;-1.30;49.00;;;;;;5045688;28;20033;-63
2022/03/08 01:32:07;;;;;;;25.65;13.77;;;-1.40;49.10;;;;;;5044449;28;20116;-63
2022/03/08 01:34:34;;;;;;;28.88;14.57;;;-1.40;49.10;;;;;;5044947;28;20037;-62
2022/03/08 01:37:00;;;;;;;23.67;13.73;;;-1.40;49.10;;;;;;5044858;28;20096;-62
2022/03/08 01:39:26;;;;;;;25.77;14.45;;;-1.20;49.10;;;;;;5024438;28;20030;-62
2022/03/08 01:41:51;;;;;;;22.30;12.85;;;-1.40;49.30;;;;;;5043555;28;20132;-62
2022/03/08 01:44:18;;;;;;;26.23;13.57;;;-1.50;49.30;;;;;;5045748;28;20025;-62
2022/03/08 01:46:44;;;;;;;22.75;13.02;;;-1.50;49.30;;;;;;5043808;28;20112;-62
2022/03/08 01:49:10;;;;;;;28.05;13.93;;;-1.50;49.30;;;;;;5045083;28;20032;-62
2022/03/08 01:51:37;;;;;;;19.75;12.13;;;-1.50;49.30;;;;;;5044676;28;20033;-63
2022/03/08 01:54:04;;;;;;;25.20;13.32;;;-1.50;49.30;;;;;;5018254;28;20033;-64
2022/03/08 01:56:29;;;;;;;23.17;12.50;;;-1.50;49.40;;;;;;5044368;28;20041;-64
2022/03/08 01:58:56;;;;;;;21.23;13.13;;;-1.60;49.30;;;;;;5045213;28;20022;-64
2022/03/08 02:01:22;;;;;;;21.40;12.82;;;-1.60;49.50;;;;;;5039335;28;20018;-64
2022/03/08 02:03:48;;;;;;;22.48;12.63;;;-1.60;49.50;;;;;;5043177;28;20025;-63
2022/03/08 02:06:14;;;;;;;20.75;11.77;;;-1.60;49.50;;;;;;5043745;28;20031;-61
2022/03/08 02:08:41;;;;;;;21.02;11.43;;;-1.60;49.50;;;;;;5045245;28;20032;-63
2022/03/08 02:11:06;;;;;;;21.08;11.23;;;-1.60;49.50;;;;;;5042031;28;20021;-64
2022/03/08 02:13:32;;;;;;;20.63;12.10;;;-1.60;49.20;;;;;;5044243;28;20050;-62
2022/03/08 02:15:58;;;;;;;21.23;12.13;;;-1.60;49.30;;;;;;5042673;28;20028;-63
2022/03/08 02:18:23;;;;;;;20.88;11.00;;;-1.60;49.50;;;;;;5045759;28;20034;-64
2022/03/08 02:20:49;;;;;;;20.25;11.30;;;-1.60;49.30;;;;;;5043396;28;20052;-62
2022/03/08 02:23:15;;;;;;;20.30;11.07;;;-1.70;49.20;;;;;;5044890;28;20032;-63
2022/03/08 02:25:41;;;;;;;17.20;10.10;;;-1.70;50.00;;;;;;5043198;28;20102;-64
2022/03/08 02:28:07;;;;;;;18.25;10.35;;;-1.60;49.50;;;;;;5031665;28;20029;-64
2022/03/08 02:30:33;;;;;;;15.93;9.32;;;-1.60;49.50;;;;;;5025555;28;20033;-64
2022/03/08 02:32:59;;;;;;;16.60;9.48;;;-1.60;49.70;;;;;;5028301;28;20056;-64
2022/03/08 02:35:27;;;;;;;14.55;8.82;;;-1.60;49.40;;;;;;5042772;28;20022;-64
2022/03/08 02:37:56;;;;;;;12.45;8.20;;;-1.50;49.80;;;;;;5043614;28;20029;-62
2022/03/08 02:40:25;;;;;;;10.15;6.38;;;-1.50;49.50;;;;;;5039029;28;20030;-63
2022/03/08 02:42:51;;;;;;;10.55;6.80;;;-1.40;49.20;;;;;;5044428;28;20032;-64
2022/03/08 02:45:18;;;;;;;13.15;7.40;;;-1.40;49.00;;;;;;5044225;28;20048;-64
2022/03/08 02:47:44;;;;;;;12.43;6.72;;;-1.30;49.00;;;;;;5030891;28;20044;-64
2022/03/08 02:50:12;;;;;;;12.80;6.93;;;-1.30;48.70;;;;;;5032163;28;20028;-63
2022/03/08 02:52:39;;;;;;;10.73;7.00;;;-1.20;48.80;;;;;;5044704;28;20048;-62
2022/03/08 02:55:06;;;;;;;13.80;6.95;;;-1.10;49.00;;;;;;5026497;28;20038;-63
2022/03/08 02:57:32;;;;;;;10.05;6.72;;;-1.10;48.80;;;;;;5043762;28;20076;-62
2022/03/08 02:59:58;;;;;;;12.55;7.03;;;-1.00;48.70;;;;;;5044285;28;20037;-63
2022/03/08 03:02:24;;;;;;;12.32;7.22;;;-0.90;48.60;;;;;;5042137;28;20022;-63
2022/03/08 03:04:49;;;;;;;11.82;7.05;;;-0.90;48.20;;;;;;5041518;28;20029;-63
2022/03/08 03:07:15;;;;;;;13.95;7.38;;;-0.90;48.40;;;;;;5042455;28;20373;-63
2022/03/08 03:09:41;;;;;;;11.80;7.30;;;-0.90;48.20;;;;;;5043545;28;20089;-63
2022/03/08 03:12:07;;;;;;;14.52;7.25;;;-0.80;48.10;;;;;;5039191;28;20030;-63
2022/03/08 03:14:33;;;;;;;14.63;7.03;;;-0.80;48.20;;;;;;5038008;28;20053;-62
2022/03/08 03:16:59;;;;;;;16.33;8.32;;;-0.80;48.10;;;;;;5025343;28;20040;-62
2022/03/08 03:19:24;;;;;;;11.85;6.80;;;-0.80;48.20;;;;;;5044063;28;20025;-64
2022/03/08 03:21:50;;;;;;;11.70;6.82;;;-0.80;48.10;;;;;;5043126;28;20037;-64
2022/03/08 03:24:16;;;;;;;12.95;7.10;;;-0.80;48.00;;;;;;5025411;28;20025;-64
2022/03/08 03:26:42;;;;;;;15.55;6.88;;;-0.70;47.90;;;;;;5036662;28;20017;-64
2022/03/08 03:29:08;;;;;;;13.77;7.57;;;-0.70;47.90;;;;;;5042721;28;20022;-64
2022/03/08 03:31:34;;;;;;;11.55;7.25;;;-0.70;47.90;;;;;;5024684;28;20017;-64
2022/03/08 03:34:00;;;;;;;14.07;7.30;;;-0.70;47.90;;;;;;5037978;28;20021;-64
2022/03/08 03:36:25;;;;;;;12.50;6.93;;;-0.70;48.00;;;;;;5042125;28;20029;-64
2022/03/08 03:38:51;;;;;;;10.98;6.90;;;-0.70;48.00;;;;;;5039415;28;20022;-64
2022/03/08 03:41:17;;;;;;;13.30;7.65;;;-0.70;47.90;;;;;;5039689;28;20057;-62
2022/03/08 03:43:42;;;;;;;12.15;7.35;;;-0.70;48.10;;;;;;5047391;28;20124;-62
2022/03/08 03:46:09;;;;;;;11.30;7.00;;;-0.70;47.90;;;;;;5046049;28;20024;-63
2022/03/08 03:48:35;;;;;;;11.65;6.88;;;-0.70;47.90;;;;;;5047534;28;20379;-62
2022/03/08 03:51:01;;;;;;;12.27;6.60;;;-0.70;48.00;;;;;;5046035;28;20033;-62
2022/03/08 03:53:26;;;;;;;11.32;6.45;;;-0.70;47.90;;;;;;5048330;28;20033;-63
2022/03/08 03:55:52;;;;;;;9.77;6.18;;;-0.60;47.70;;;;;;5046287;28;20442;-62
2022/03/08 03:58:18;;;;;;;9.57;6.53;;;-0.30;47.70;;;;;;5047555;28;20025;-63
2022/03/08 04:00:44;;;;;;;9.88;6.10;;;-0.50;47.80;;;;;;5047534;28;20217;-62
2022/03/08 04:03:09;;;;;;;14.25;6.90;;;-0.50;47.60;;;;;;5046748;28;20472;-64
2022/03/08 04:05:35;;;;;;;16.38;7.10;;;-0.50;47.70;;;;;;5047376;28;20033;-62
2022/03/08 04:08:01;;;;;;;11.80;7.03;;;-0.50;47.70;;;;;;5046271;28;20113;-63
2022/03/08 04:10:27;;;;;;;13.07;8.23;;;-0.50;47.80;;;;;;5029310;28;20029;-63
2022/03/08 04:12:52;;;;;;;14.15;8.00;;;-0.50;47.80;;;;;;5046070;28;20119;-64
2022/03/08 04:15:18;;;;;;;15.52;8.43;;;-0.50;47.80;;;;;;5043815;28;20040;-63
2022/03/08 04:17:44;;;;;;;15.00;8.20;;;-0.50;47.70;;;;;;5047156;28;20041;-64
2022/03/08 04:20:10;;;;;;;16.05;8.38;;;-0.60;47.70;;;;;;5045872;28;20021;-63
2022/03/08 04:22:36;;;;;;;15.30;9.07;;;-0.60;47.70;;;;;;5029291;28;20440;-63
2022/03/08 04:25:03;;;;;;;14.18;8.30;;;-0.70;47.60;;;;;;5046065;28;20037;-63
2022/03/08 04:27:29;;;;;;;14.02;8.05;;;-0.80;47.80;;;;;;5047232;28;20033;-64
2022/03/08 04:29:54;;;;;;;13.75;8.70;;;-0.80;47.80;;;;;;5046054;28;20097;-63
2022/03/08 04:32:20;;;;;;;15.65;8.15;;;-0.90;47.80;;;;;;5046655;28;20030;-63
2022/03/08 04:34:46;;;;;;;15.77;8.02;;;-0.90;47.90;;;;;;5045645;28;20037;-64
2022/03/08 04:37:11;;;;;;;14.48;8.50;;;-1.00;47.90;;;;;;5046899;28;20056;-64
2022/03/08 04:39:37;;;;;;;14.38;8.65;;;-1.10;48.10;;;;;;5032686;28;20081;-63
2022/03/08 04:42:03;;;;;;;16.20;8.48;;;-1.10;48.30;;;;;;5046070;28;20163;-63
2022/03/08 04:44:29;;;;;;;17.98;9.32;;;-1.20;48.50;;;;;;5045523;28;20025;-63
2022/03/08 04:46:54;;;;;;;13.48;8.20;;;-1.20;48.80;;;;;;5046780;28;20341;-63
2022/03/08 04:49:20;;;;;;;16.50;8.80;;;-1.30;48.90;;;;;;5045754;28;20476;-63
2022/03/08 04:51:45;;;;;;;14.95;8.50;;;-1.30;49.00;;;;;;5045794;28;20461;-63
2022/03/08 04:54:11;;;;;;;15.55;9.00;;;-1.30;49.20;;;;;;5044924;28;20060;-64
2022/03/08 04:56:37;;;;;;;14.65;8.48;;;-1.40;49.20;;;;;;5028760;28;20037;-63
2022/03/08 04:59:04;;;;;;;18.85;9.27;;;-1.40;49.20;;;;;;5045695;28;20079;-63
2022/03/08 05:01:29;;;;;;;15.27;8.30;;;-1.50;49.40;;;;;;5046543;28;20495;-63
2022/03/08 05:03:55;;;;;;;14.85;9.45;;;-1.50;49.50;;;;;;5027553;28;20522;-64
2022/03/08 05:06:21;;;;;;;16.83;9.95;;;-1.50;49.50;;;;;;5046694;28;20059;-64
2022/03/08 05:08:46;;;;;;;16.90;9.02;;;-1.50;49.60;;;;;;5045157;28;20529;-63
2022/03/08 05:11:13;;;;;;;15.18;8.05;;;-1.60;49.50;;;;;;5046479;28;20043;-63
2022/03/08 05:13:39;;;;;;;13.55;8.30;;;-1.60;49.70;;;;;;5044306;28;20057;-63
2022/03/08 05:16:05;;;;;;;14.88;8.20;;;-1.60;49.70;;;;;;5028450;28;20082;-63
2022/03/08 05:18:31;;;;;;;15.63;8.85;;;-1.70;49.70;;;;;;5045246;28;20052;-63
2022/03/08 05:20:57;;;;;;;14.57;8.48;;;-1.70;49.70;;;;;;5045819;28;20093;-64
2022/03/08 05:23:22;;;;;;;16.05;9.70;;;-1.70;49.70;;;;;;5027029;28;20040;-64
2022/03/08 05:25:48;;;;;;;15.38;8.50;;;-1.80;49.70;;;;;;5046514;28;20036;-63
2022/03/08 05:28:14;;;;;;;17.85;9.45;;;-1.80;49.70;;;;;;5044745;28;20032;-63
2022/03/08 05:30:41;;;;;;;14.40;8.23;;;-1.80;49.90;;;;;;5028388;28;20030;-64
2022/03/08 05:33:06;;;;;;;13.05;8.88;;;-1.90;49.80;;;;;;5026793;28;20033;-63
2022/03/08 05:35:33;;;;;;;17.88;9.25;;;-1.90;49.90;;;;;;5046054;28;20038;-63
2022/03/08 05:37:58;;;;;;;17.35;8.50;;;-1.90;50.00;;;;;;5045382;28;20028;-64
2022/03/08 05:40:24;;;;;;;19.77;8.70;;;-2.00;49.80;;;;;;5044540;28;20022;-63
2022/03/08 05:42:50;;;;;;;15.20;8.70;;;-2.00;49.90;;;;;;5028141;28;20029;-64
2022/03/08 05:45:22;;;;;;;16.00;9.13;;;-2.00;50.00;;;;;;5043699;28;20109;-63
2022/03/08 05:47:53;;;;;;;13.18;8.15;;;-2.00;50.00;;;;;;5045451;28;20026;-63
2022/03/08 05:50:18;;;;;;;18.30;9.20;;;-2.00;50.00;;;;;;5043967;28;20381;-63
2022/03/08 05:52:44;;;;;;;17.63;9.38;;;-2.10;50.00;;;;;;5045776;28;20064;-63
2022/03/08 05:55:10;;;;;;;14.80;8.88;;;-2.10;50.10;;;;;;5026249;28;20100;-63
2022/03/08 05:57:35;;;;;;;16.27;9.00;;;-2.10;50.10;;;;;;5045197;28;20128;-63
2022/03/08 06:00:01;;;;;;;16.98;8.60;;;-2.10;50.20;;;;;;5044268;28;20078;-63
2022/03/08 06:02:27;;;;;;;19.85;10.10;;;-2.10;50.20;;;;;;5045115;28;20029;-64
2022/03/08 06:04:53;;;;;;;17.77;9.65;;;-2.10;50.30;;;;;;5044106;28;20037;-63
2022/03/08 06:07:21;;;;;;;17.08;9.30;;;-2.10;50.30;;;;;;5044612;28;20042;-63
2022/03/08 06:09:47;;;;;;;18.15;9.73;;;-2.10;50.50;;;;;;5044257;28;20056;-63
2022/03/08 06:12:13;;;;;;;17.80;9.00;;;-2.10;50.70;;;;;;5027216;28;20025;-63
2022/03/08 06:14:38;;;;;;;14.18;8.48;;;-2.10;51.10;;;;;;5043855;28;20041;-63
2022/03/08 06:17:06;;;;;;;19.20;8.57;;;-2.10;51.30;;;;;;5025235;28;20093;-63
2022/03/08 06:19:33;;;;;;;15.63;8.57;;;-2.10;51.20;;;;;;5043890;28;20032;-63
2022/03/08 06:21:58;;;;;;;16.90;8.38;;;-2.10;51.20;;;;;;5043450;28;20044;-63
2022/03/08 06:24:24;;;;;;;14.30;8.50;;;-2.10;51.30;;;;;;5044651;28;20107;-63
2022/03/08 06:26:50;;;;;;;16.38;9.15;;;-2.00;51.30;;;;;;5043772;28;20059;-64
2022/03/08 06:29:15;;;;;;;16.48;8.48;;;-2.00;51.30;;;;;;5045276;28;20088;-63
2022/03/08 06:31:41;;;;;;;12.52;7.80;;;-1.90;51.30;;;;;;5043885;28;20037;-63
2022/03/08 06:34:07;;;;;;;17.40;8.77;;;-1.90;51.40;;;;;;5044861;28;20037;-63
2022/03/08 06:36:34;;;;;;;17.55;9.10;;;-1.80;51.20;;;;;;5025596;28;20033;-64
2022/03/08 06:39:00;;;;;;;16.23;9.18;;;-1.80;51.70;;;;;;5044687;28;20454;-64
2022/03/08 06:41:26;;;;;;;16.45;9.35;;;-1.70;51.80;;;;;;5025957;28;20025;-64
2022/03/08 06:43:52;;;;;;;18.38;9.35;;;-1.70;51.70;;;;;;5044794;28;20036;-63
2022/03/08 06:46:18;;;;;;;23.58;10.15;;;-1.60;51.50;;;;;;5042545;28;20037;-63
2022/03/08 06:48:43;;;;;;;18.60;9.07;;;-1.50;51.90;;;;;;5044652;28;20021;-63
2022/03/08 06:51:09;;;;;;;15.68;9.20;;;-1.40;51.80;;;;;;5025149;28;20061;-63
2022/03/08 06:53:34;;;;;;;31.17;11.13;;;-1.40;51.70;;;;;;5026985;28;20087;-63
2022/03/08 06:56:00;;;;;;;17.38;9.98;;;-1.30;51.80;;;;;;5043745;28;20158;-63
2022/03/08 06:58:26;;;;;;;18.95;9.73;;;-1.20;51.70;;;;;;5044606;28;20123;-63
2022/03/08 07:00:52;;;;;;;19.30;9.93;;;-1.00;51.50;;;;;;5044534;28;20030;-63
2022/03/08 07:03:18;;;;;;;16.67;9.40;;;-0.90;51.40;;;;;;5043427;28;20064;-64
2022/03/08 07:05:46;;;;;;;17.20;10.20;;;-0.70;51.30;;;;;;5026809;28;20053;-63
2022/03/08 07:08:12;;;;;;;20.38;10.05;;;-0.60;51.10;;;;;;5043579;28;20037;-63
2022/03/08 07:10:37;;;;;;;18.95;9.65;;;-0.40;51.10;;;;;;5026450;28;20036;-64
2022/03/08 07:13:03;;;;;;;20.42;9.85;;;-0.20;51.10;;;;;;5043031;28;20049;-63
2022/03/08 07:15:29;;;;;;;16.23;9.48;;;-0.10;51.00;;;;;;5028834;28;20194;-63
2022/03/08 07:17:55;;;;;;;15.20;8.40;;;0.10;50.90;;;;;;5046968;28;20034;-64
2022/03/08 07:20:20;;;;;;;17.88;9.00;;;0.40;50.80;;;;;;5048029;28;20025;-63
2022/03/08 07:22:46;;;;;;;16.98;9.07;;;0.50;50.50;;;;;;5029518;28;20025;-63
2022/03/08 07:25:13;;;;;;;15.90;8.23;;;0.60;50.20;;;;;;5048341;28;20030;-63
2022/03/08 07:27:39;;;;;;;18.42;9.43;;;1.00;50.20;;;;;;5046771;28;20021;-64
2022/03/08 07:30:06;;;;;;;17.00;8.38;;;1.00;50.00;;;;;;5047848;28;20033;-64
2022/03/08 07:32:32;;;;;;;14.52;7.97;;;1.20;49.70;;;;;;5047213;28;20029;-63
2022/03/08 07:34:58;;;;;;;17.50;8.27;;;1.60;49.70;;;;;;5047586;28;20127;-64
2022/03/08 07:37:24;;;;;;;16.65;8.65;;;1.60;49.40;;;;;;5046804;28;20029;-64
2022/03/08 07:39:50;;;;;;;16.45;7.78;;;1.90;49.20;;;;;;5030159;28;20068;-64
2022/03/08 07:42:16;;;;;;;14.52;7.30;;;1.90;48.90;;;;;;5046900;28;20026;-64
2022/03/08 07:44:42;;;;;;;14.73;7.82;;;2.00;48.80;;;;;;5047762;28;20025;-64
2022/03/08 07:47:08;;;;;;;16.27;7.90;;;2.20;48.60;;;;;;5045981;28;20033;-63
2022/03/08 07:49:35;;;;;;;11.38;7.40;;;2.40;48.50;;;;;;5047823;28;20035;-64
2022/03/08 07:52:01;;;;;;;12.50;7.70;;;2.50;48.50;;;;;;5047128;28;20014;-64
2022/03/08 07:54:27;;;;;;;12.25;7.05;;;2.70;48.50;;;;;;5047574;28;20040;-63
2022/03/08 07:56:52;;;;;;;13.38;8.20;;;2.80;48.30;;;;;;5028573;28;20384;-64
2022/03/08 07:59:18;;;;;;;12.65;7.22;;;2.90;47.90;;;;;;5047545;28;20021;-64
2022/03/08 08:01:44;;;;;;;12.60;7.70;;;3.10;47.90;;;;;;5028623;28;20028;-64
2022/03/08 08:04:10;;;;;;;11.85;7.70;;;3.20;47.80;;;;;;5047370;28;20396;-63
2022/03/08 08:06:35;;;;;;;14.43;7.55;;;3.40;47.80;;;;;;5046457;28;20081;-64
2022/03/08 08:09:01;;;;;;;13.73;7.72;;;3.50;47.70;;;;;;5029927;28;20029;-64
2022/03/08 08:11:27;;;;;;;12.80;7.75;;;3.90;47.70;;;;;;5046115;28;20093;-63
2022/03/08 08:13:53;;;;;;;14.20;7.80;;;3.80;47.40;;;;;;5046307;28;20504;-64
2022/03/08 08:16:19;;;;;;;11.45;7.45;;;3.90;47.10;;;;;;5046107;28;20025;-64
2022/03/08 08:18:45;;;;;;;14.13;8.15;;;4.10;47.00;;;;;;5047399;28;20034;-64
2022/03/08 08:21:11;;;;;;;10.35;7.50;;;4.40;47.10;;;;;;5043321;28;20085;-64
2022/03/08 08:23:37;;;;;;;15.23;7.50;;;4.30;46.90;;;;;;5028941;28;20074;-64
2022/03/08 08:26:03;;;;;;;16.08;7.32;;;4.40;46.90;;;;;;5026599;28;20053;-64
2022/03/08 08:28:28;;;;;;;11.50;7.18;;;4.60;46.80;;;;;;5047503;28;20026;-64
2022/03/08 08:30:54;;;;;;;11.73;7.30;;;4.70;46.70;;;;;;5045903;28;20040;-64
2022/03/08 08:33:20;;;;;;;11.50;7.55;;;4.80;46.60;;;;;;5046782;28;20041;-64
2022/03/08 08:35:46;;;;;;;13.98;7.57;;;5.00;46.40;;;;;;5045953;28;20033;-64
2022/03/08 08:38:11;;;;;;;10.10;7.13;;;5.10;46.00;;;;;;5046664;28;20028;-64
2022/03/08 08:40:37;;;;;;;9.27;6.78;;;5.40;45.90;;;;;;5045813;28;20029;-64
2022/03/08 08:43:05;;;;;;;14.07;6.97;;;5.30;45.70;;;;;;5046842;28;20029;-64
2022/03/08 08:45:31;;;;;;;11.57;6.40;;;5.40;45.50;;;;;;5044925;28;20771;-64
2022/03/08 08:47:57;;;;;;;10.52;6.60;;;5.50;45.40;;;;;;5047028;28;20025;-64
2022/03/08 08:50:23;;;;;;;12.00;7.05;;;5.50;45.10;;;;;;5045959;28;20496;-64
2022/03/08 08:52:49;;;;;;;13.57;7.03;;;5.60;45.00;;;;;;5028880;28;20105;-64
2022/03/08 08:55:15;;;;;;;12.30;7.50;;;5.70;45.10;;;;;;5045788;28;20068;-64
2022/03/08 08:57:40;;;;;;;14.00;6.75;;;5.80;45.10;;;;;;5046481;28;20095;-64
2022/03/08 09:00:08;;;;;;;11.45;6.50;;;5.90;44.80;;;;;;5027245;28;20060;-64
2022/03/08 09:02:35;;;;;;;10.10;5.90;;;6.00;44.50;;;;;;5046875;28;20108;-64
2022/03/08 09:05:01;;;;;;;9.15;5.97;;;6.20;44.60;;;;;;5028550;28;20084;-64
2022/03/08 09:07:26;;;;;;;9.82;5.72;;;6.30;44.20;;;;;;5029058;28;20053;-64
2022/03/08 09:09:52;;;;;;;7.80;5.57;;;6.40;44.00;;;;;;5045212;28;20112;-65
2022/03/08 09:12:18;;;;;;;11.55;5.50;;;6.50;43.80;;;;;;5028546;28;20064;-65
2022/03/08 09:14:43;;;;;;;12.80;6.22;;;6.60;43.80;;;;;;5045370;28;20103;-65
2022/03/08 09:17:09;;;;;;;7.50;5.63;;;6.70;43.10;;;;;;5028228;28;20047;-64
2022/03/08 09:19:35;;;;;;;9.00;5.53;;;6.80;43.50;;;;;;5044994;28;20033;-64
2022/03/08 09:22:01;;;;;;;9.05;5.85;;;6.90;43.20;;;;;;5046312;28;20029;-64
2022/03/08 09:24:26;;;;;;;11.30;5.82;;;7.00;42.80;;;;;;5044784;28;20472;-64
2022/03/08 09:26:52;;;;;;;10.95;5.85;;;7.10;42.90;;;;;;5045951;28;20055;-64
2022/03/08 09:29:18;;;;;;;10.15;5.75;;;7.20;42.30;;;;;;5044809;28;20132;-65
2022/03/08 09:31:44;;;;;;;12.02;5.60;;;7.20;42.60;;;;;;5046252;28;20085;-64
2022/03/08 09:34:09;;;;;;;8.73;5.38;;;7.30;42.60;;;;;;5044606;28;20045;-64
2022/03/08 09:36:37;;;;;;;8.45;5.55;;;7.40;42.40;;;;;;5045552;28;20455;-64
2022/03/08 09:39:04;;;;;;;9.38;5.38;;;7.60;42.20;;;;;;5044341;28;20032;-64
2022/03/08 09:41:30;;;;;;;7.72;5.30;;;7.60;41.80;;;;;;5027700;28;20044;-64
2022/03/08 09:43:56;;;;;;;6.97;4.82;;;7.70;42.20;;;;;;5027678;28;20025;-64
2022/03/08 09:46:21;;;;;;;8.27;4.97;;;7.80;41.70;;;;;;5044193;28;20024;-64
2022/03/08 09:48:48;;;;;;;7.75;5.25;;;8.00;41.70;;;;;;5045743;28;20037;-64
2022/03/08 09:51:16;;;;;;;7.18;5.10;;;8.00;41.30;;;;;;5044184;28;20018;-64
2022/03/08 09:53:44;;;;;;;8.95;5.35;;;8.10;41.30;;;;;;5045078;28;20044;-63
2022/03/08 09:56:10;;;;;;;8.48;5.47;;;8.20;41.00;;;;;;5044642;28;20056;-64
2022/03/08 09:58:37;;;;;;;8.10;5.60;;;8.20;41.10;;;;;;5045578;28;20035;-63
2022/03/08 10:01:04;;;;;;;8.90;5.95;;;8.30;41.20;;;;;;5026256;28;20024;-65
2022/03/08 10:03:43;;;;;;;9.18;5.60;;;8.30;41.00;;;;;;5045181;28;20029;-65
2022/03/08 10:06:10;;;;;;;8.10;5.32;;;8.40;40.40;;;;;;5041705;28;20109;-63
2022/03/08 10:08:36;;;;;;;7.75;4.95;;;8.40;40.60;;;;;;5043759;28;20040;-63
2022/03/08 10:11:04;;;;;;;8.23;5.50;;;8.50;40.60;;;;;;5026174;28;20117;-64
2022/03/08 10:13:37;;;;;;;9.20;5.63;;;8.50;40.50;;;;;;5044351;28;20049;-63
2022/03/08 10:16:09;;;;;;;9.13;5.47;;;8.60;40.20;;;;;;5024855;28;20037;-64
2022/03/08 10:18:38;;;;;;;10.85;5.55;;;8.60;40.00;;;;;;5025753;28;20037;-64
2022/03/08 10:21:31;;;;;;;8.23;5.38;;;8.60;39.90;;;;;;5043702;28;20523;-64
2022/03/08 10:24:13;;;;;;;8.82;5.57;;;8.70;39.60;;;;;;5035907;28;20085;-63
2022/03/08 10:26:57;;;;;;;7.25;4.82;;;8.70;39.20;;;;;;5042469;28;20044;-65
2022/03/08 10:29:26;;;;;;;5.35;4.28;;;8.80;39.80;;;;;;5042374;28;20037;-63
2022/03/08 10:32:19;;;;;;;6.65;4.60;;;8.80;39.80;;;;;;5027029;28;20037;-64
2022/03/08 10:34:47;;;;;;;7.03;4.50;;;8.90;38.80;;;;;;5025513;28;20042;-64
2022/03/08 10:37:20;;;;;;;8.02;4.70;;;8.90;39.40;;;;;;5042734;28;20030;-65
2022/03/08 10:39:56;;;;;;;9.32;4.68;;;9.00;39.20;;;;;;5045024;28;20029;-63
2022/03/08 10:42:24;;;;;;;7.15;4.80;;;9.00;38.60;;;;;;5043496;28;20441;-63
2022/03/08 10:44:53;;;;;;;8.45;4.95;;;9.10;39.50;;;;;;5027285;28;20039;-64
2022/03/08 10:47:19;;;;;;;7.82;4.47;;;9.20;38.70;;;;;;5042871;28;20029;-65
2022/03/08 10:50:03;;;;;;;7.13;4.70;;;9.30;38.70;;;;;;5044261;28;20030;-63
2022/03/08 10:52:56;;;;;;;7.88;4.72;;;9.30;37.80;;;;;;5006090;28;20033;-64
2022/03/08 10:55:28;;;;;;;9.35;4.00;;;9.40;38.40;;;;;;5021581;28;20079;-64
2022/03/08 10:58:01;;;;;;;8.00;4.32;;;9.40;38.50;;;;;;5037408;28;20034;-64
2022/03/08 11:00:32;;;;;;;8.88;5.00;;;9.50;37.80;;;;;;5024927;28;20021;-63
2022/03/08 11:03:00;;;;;;;6.70;4.28;;;9.50;37.20;;;;;;5024809;28;20396;-63
2022/03/08 11:05:44;;;;;;;8.27;4.30;;;9.60;37.60;;;;;;5027020;28;20056;-63
2022/03/08 11:08:11;;;;;;;6.93;4.05;;;9.60;37.70;;;;;;5043299;28;20095;-64
2022/03/08 11:10:37;;;;;;;7.57;4.60;;;9.70;37.60;;;;;;5044810;28;20033;-64
2022/03/08 11:13:05;;;;;;;4.88;3.58;;;9.80;37.50;;;;;;5042909;28;20041;-64
2022/03/08 11:15:34;;;;;;;6.25;3.63;;;9.90;37.70;;;;;;5044211;28;20515;-65
2022/03/08 11:18:01;;;;;;;4.95;3.60;;;9.90;38.00;;;;;;5043326;28;20025;-65
2022/03/08 11:20:28;;;;;;;6.25;4.20;;;10.00;37.40;;;;;;5044367;28;20048;-64
2022/03/08 11:22:56;;;;;;;5.75;4.45;;;10.10;36.60;;;;;;5043173;28;20022;-65
2022/03/08 11:25:34;;;;;;;7.18;4.53;;;10.10;36.60;;;;;;5044296;28;20083;-64
2022/03/08 11:28:02;;;;;;;5.80;3.97;;;10.10;36.60;;;;;;5032069;28;20460;-64
2022/03/08 11:30:50;;;;;;;6.05;4.18;;;10.20;37.10;;;;;;5044403;28;20170;-64
2022/03/08 11:33:46;;;;;;;7.95;4.20;;;10.20;36.70;;;;;;5032288;28;20032;-63
2022/03/08 11:36:35;;;;;;;12.55;4.72;;;10.30;35.90;;;;;;5027153;28;20049;-64
2022/03/08 11:39:16;;;;;;;6.63;4.15;;;10.40;35.40;;;;;;5039032;28;20102;-64
2022/03/08 11:41:44;;;;;;;7.00;4.75;;;10.40;35.70;;;;;;5024653;28;20026;-64
2022/03/08 11:44:30;;;;;;;7.45;4.78;;;10.50;36.20;;;;;;5025219;28;20038;-65
2022/03/08 11:47:05;;;;;;;8.13;4.80;;;10.60;35.00;;;;;;5026171;28;20288;-63
2022/03/08 11:49:41;;;;;;;7.40;5.28;;;10.60;35.60;;;;;;5042969;28;20037;-64
2022/03/08 11:52:14;;;;;;;8.50;6.03;;;10.60;35.90;;;;;;5025982;28;20075;-65
2022/03/08 11:54:39;;;;;;;9.10;5.65;;;10.70;35.30;;;;;;5039725;28;20045;-64
2022/03/08 11:57:05;;;;;;;8.25;4.80;;;10.70;35.80;;;;;;5042738;28;20488;-64
2022/03/08 11:59:31;;;;;;;8.73;5.43;;;10.80;36.20;;;;;;5042287;28;20037;-64
2022/03/08 12:01:56;;;;;;;7.72;5.55;;;10.90;35.70;;;;;;5046749;28;20071;-66
2022/03/08 12:04:22;;;;;;;9.07;5.47;;;10.90;35.70;;;;;;5046145;28;20076;-65
2022/03/08 12:06:58;;;;;;;7.50;5.53;;;11.00;35.40;;;;;;5047528;28;20108;-64
2022/03/08 12:09:25;;;;;;;9.48;5.10;;;11.10;35.50;;;;;;5033328;28;20081;-64
2022/03/08 12:12:02;;;;;;;9.23;5.43;;;11.10;35.70;;;;;;5046739;28;20026;-65
2022/03/08 12:14:36;;;;;;;9.95;5.68;;;11.10;34.10;;;;;;5033579;28;20060;-64
2022/03/08 12:17:20;;;;;;;7.82;5.07;;;11.20;34.90;;;;;;5029543;28;20033;-65
2022/03/08 12:19:54;;;;;;;10.13;5.10;;;11.20;34.50;;;;;;5017898;28;20029;-65
2022/03/08 12:22:24;;;;;;;7.80;4.90;;;11.30;35.30;;;;;;5009979;28;20108;-66
2022/03/08 12:24:56;;;;;;;8.20;4.80;;;11.30;34.20;;;;;;5027546;28;20029;-64
2022/03/08 12:27:24;;;;;;;7.22;4.72;;;11.40;35.30;;;;;;5027391;28;20037;-64
2022/03/08 12:29:51;;;;;;;7.82;4.85;;;11.50;35.60;;;;;;5045557;28;20037;-64
2022/03/08 12:32:26;;;;;;;7.28;4.45;;;11.60;35.40;;;;;;5042774;28;20022;-64
2022/03/08 12:34:53;;;;;;;;;;;11.70;34.70;;;;;;5027953;28;20041;-64
2022/03/08 12:37:21;;;;;;;9.23;4.18;;;11.80;33.90;;;;;;5044860;28;19909;-64
2022/03/08 12:39:55;;;;;;;5.18;4.38;;;11.90;34.90;;;;;;5046528;28;20076;-66
2022/03/08 12:42:23;;;;;;;5.07;4.20;;;12.00;34.90;;;;;;5043461;28;20033;-65